createdAt,value
2019-03-11T00:02:24.538Z,5.90
2019-03-11T00:04:52.595Z,9.20
2019-03-11T00:07:20.650Z,9.73
2019-03-11T00:09:48.764Z,7.77
2019-03-11T00:12:16.811Z,8.67
2019-03-11T00:14:44.867Z,7.57
2019-03-11T00:17:12.922Z,9.53
2019-03-11T00:19:40.979Z,8.20
2019-03-11T00:22:09.170Z,12.97
2019-03-11T00:24:37.231Z,13.13
2019-03-11T00:27:05.311Z,7.73
2019-03-11T00:29:33.373Z,7.93
2019-03-11T00:32:01.431Z,9.80
2019-03-11T00:34:29.502Z,12.73
2019-03-11T00:36:57.545Z,8.40
2019-03-11T00:39:25.586Z,8.60
2019-03-11T00:41:53.650Z,6.73
2019-03-11T00:44:21.729Z,11.37
2019-03-11T00:46:49.774Z,9.20
2019-03-11T00:49:17.847Z,7.70
2019-03-11T00:51:46.693Z,6.53
2019-03-11T00:54:14.814Z,11.40
2019-03-11T00:56:42.866Z,13.37
2019-03-11T00:59:10.925Z,6.73
2019-03-11T01:01:38.967Z,8.13
2019-03-11T01:04:07.039Z,8.00
2019-03-11T01:06:35.096Z,7.43
2019-03-11T01:09:04.086Z,11.20
2019-03-11T01:11:32.194Z,12.23
2019-03-11T01:14:00.266Z,7.30
2019-03-11T01:16:28.486Z,11.50
2019-03-11T01:18:56.535Z,6.97
2019-03-11T01:21:24.581Z,11.93
2019-03-11T01:23:52.653Z,6.37
2019-03-11T01:26:20.699Z,9.57
2019-03-11T01:28:48.763Z,8.47
2019-03-11T01:31:16.814Z,10.40
2019-03-11T01:33:44.874Z,10.37
2019-03-11T01:36:12.946Z,13.67
2019-03-11T01:38:40.991Z,8.10
2019-03-11T01:41:09.062Z,10.63
2019-03-11T01:43:37.163Z,13.10
2019-03-11T01:46:05.241Z,12.93
2019-03-11T01:48:33.287Z,4.80
2019-03-11T01:51:01.346Z,15.67
2019-03-11T01:53:29.447Z,10.90
2019-03-11T01:55:57.494Z,15.00
2019-03-11T01:58:25.546Z,18.80
2019-03-11T02:00:53.670Z,13.93
2019-03-11T02:03:21.725Z,13.27
2019-03-11T02:05:49.806Z,13.27
2019-03-11T02:08:17.860Z,10.07
2019-03-11T02:10:49.063Z,10.63
2019-03-11T02:13:17.254Z,10.03
2019-03-11T02:15:45.294Z,12.07
2019-03-11T02:18:13.354Z,14.97
2019-03-11T02:20:41.422Z,7.73
2019-03-11T02:23:09.485Z,7.43
2019-03-11T02:25:37.510Z,14.93
2019-03-11T02:28:05.622Z,15.77
2019-03-11T02:30:33.671Z,10.83
2019-03-11T02:33:01.720Z,7.53
2019-03-11T02:35:29.942Z,10.53
2019-03-11T02:37:57.990Z,12.73
2019-03-11T02:40:26.717Z,9.17
2019-03-11T02:42:54.771Z,16.33
2019-03-11T02:45:22.845Z,14.97
2019-03-11T02:47:50.951Z,20.17
2019-03-11T02:50:19.017Z,15.43
2019-03-11T02:52:47.099Z,15.70
2019-03-11T02:55:15.162Z,14.70
2019-03-11T02:57:43.205Z,17.03
2019-03-11T03:00:19.079Z,11.80
2019-03-11T03:02:54.607Z,12.57
2019-03-11T03:05:30.526Z,11.20
2019-03-11T03:07:58.554Z,12.20
2019-03-11T03:10:26.619Z,12.50
2019-03-11T03:12:54.832Z,16.57
2019-03-11T03:15:22.886Z,13.60
2019-03-11T03:17:50.939Z,12.33
2019-03-11T03:20:19.006Z,15.30
2019-03-11T03:22:47.151Z,14.47
2019-03-11T03:25:15.297Z,12.23
2019-03-11T03:27:43.461Z,10.53
2019-03-11T03:30:13.083Z,9.07
2019-03-11T03:32:41.131Z,2.13
2019-03-11T03:35:09.187Z,0.20
2019-03-11T03:37:37.246Z,2.80
2019-03-11T03:40:06.986Z,3.53
2019-03-11T03:42:35.176Z,0.37
2019-03-11T03:45:21.389Z,0.73
2019-03-11T03:47:49.695Z,0.77
2019-03-11T03:50:17.802Z,0.40
2019-03-11T03:52:45.843Z,0.60
2019-03-11T03:55:13.896Z,2.07
2019-03-11T03:57:41.940Z,2.20
2019-03-11T04:00:10.479Z,4.23
2019-03-11T04:02:38.526Z,1.00
2019-03-11T04:05:07.967Z,1.53
2019-03-11T04:07:36.007Z,1.40
2019-03-11T04:10:08.483Z,0.97
2019-03-11T04:12:37.497Z,0.63
2019-03-11T04:15:06.706Z,1.27
2019-03-11T04:17:34.990Z,1.83
2019-03-11T04:20:03.832Z,4.90
2019-03-11T04:22:31.884Z,2.00
2019-03-11T04:24:59.918Z,3.87
2019-03-11T04:27:28.002Z,3.60
2019-03-11T04:29:56.047Z,4.13
2019-03-11T04:32:24.096Z,1.10
2019-03-11T04:34:52.151Z,3.13
2019-03-11T04:37:20.197Z,2.00
2019-03-11T04:39:48.339Z,1.83
2019-03-11T04:42:16.378Z,1.17
2019-03-11T04:44:44.442Z,0.90
2019-03-11T04:47:12.503Z,0.40
2019-03-11T04:49:40.605Z,2.07
2019-03-11T04:52:08.692Z,4.30
2019-03-11T04:54:36.842Z,1.70
2019-03-11T04:57:04.890Z,1.47
2019-03-11T04:59:32.946Z,1.77
2019-03-11T05:02:01.085Z,2.80
2019-03-11T05:04:29.118Z,0.20
2019-03-11T05:06:57.182Z,0.47
2019-03-11T05:09:25.243Z,2.73
2019-03-11T05:11:53.286Z,0.40
2019-03-11T05:14:21.351Z,0.10
2019-03-11T05:16:49.404Z,0.23
2019-03-11T05:19:17.514Z,0.00
2019-03-11T05:21:45.562Z,0.57
2019-03-11T05:24:13.704Z,0.23
2019-03-11T05:26:41.761Z,2.10
2019-03-11T05:29:09.829Z,0.33
2019-03-11T05:31:37.890Z,0.20
2019-03-11T05:34:05.941Z,0.77
2019-03-11T05:36:34.001Z,0.83
2019-03-11T05:39:02.141Z,0.30
2019-03-11T05:41:30.193Z,1.50
2019-03-11T05:43:58.285Z,0.50
2019-03-11T05:46:26.347Z,1.27
2019-03-11T05:48:54.458Z,2.00
2019-03-11T05:51:31.086Z,1.43
2019-03-11T05:53:52.279Z,0.27
2019-03-11T05:56:20.334Z,2.07
2019-03-11T05:58:48.403Z,2.80
2019-03-11T06:01:16.479Z,1.27
2019-03-11T06:03:44.589Z,0.63
2019-03-11T06:06:12.638Z,2.07
2019-03-11T06:08:40.695Z,0.40
2019-03-11T06:11:08.789Z,1.00
2019-03-11T06:13:36.834Z,0.50
2019-03-11T06:16:04.887Z,1.37
2019-03-11T06:18:37.757Z,0.70
2019-03-11T06:21:23.524Z,2.07
2019-03-11T06:23:51.580Z,1.47
2019-03-11T06:26:19.630Z,1.07
2019-03-11T06:28:47.696Z,0.83
2019-03-11T06:31:15.802Z,1.47
2019-03-11T06:33:43.860Z,4.57
2019-03-11T06:36:11.924Z,2.73
2019-03-11T06:38:39.977Z,2.37
2019-03-11T06:41:08.039Z,2.47
2019-03-11T06:43:36.167Z,0.50
2019-03-11T06:46:04.360Z,0.57
2019-03-11T06:48:32.406Z,0.87
2019-03-11T06:51:00.454Z,2.20
2019-03-11T06:53:28.514Z,1.40
2019-03-11T06:55:56.561Z,2.17
2019-03-11T06:58:24.610Z,1.53
2019-03-11T07:00:52.669Z,2.87
2019-03-11T07:03:21.261Z,0.40
2019-03-11T07:05:49.335Z,0.43
2019-03-11T07:08:17.400Z,0.33
2019-03-11T07:10:45.486Z,2.90
2019-03-11T07:13:13.518Z,1.33
2019-03-11T07:15:41.618Z,0.70
2019-03-11T07:18:09.667Z,1.40
2019-03-11T07:20:39.112Z,1.63
2019-03-11T07:23:07.312Z,0.67
2019-03-11T07:25:35.354Z,0.87
2019-03-11T07:28:03.415Z,2.67
2019-03-11T07:30:31.506Z,2.90
2019-03-11T07:32:59.582Z,4.97
2019-03-11T07:35:27.642Z,2.13
2019-03-11T07:37:55.818Z,0.83
2019-03-11T07:40:29.800Z,0.70
2019-03-11T07:42:53.600Z,0.70
2019-03-11T07:45:21.661Z,1.47
2019-03-11T07:47:49.712Z,3.97
2019-03-11T07:50:17.749Z,0.87
2019-03-11T07:52:45.806Z,4.07
2019-03-11T07:55:13.932Z,1.63
2019-03-11T07:57:41.956Z,2.33
2019-03-11T08:00:11.558Z,3.27
2019-03-11T08:02:39.598Z,2.20
2019-03-11T08:05:08.819Z,3.23
2019-03-11T08:07:36.926Z,3.33
2019-03-11T08:10:12.622Z,1.80
2019-03-11T08:12:40.658Z,5.13
2019-03-11T08:15:10.166Z,4.07
2019-03-11T08:17:38.222Z,4.07
2019-03-11T08:20:07.538Z,2.70
2019-03-11T08:22:35.597Z,4.73
2019-03-11T08:25:04.504Z,3.03
2019-03-11T08:27:32.554Z,4.27
2019-03-11T08:30:00.627Z,2.10
2019-03-11T08:32:28.723Z,2.77
2019-03-11T08:34:56.818Z,2.40
2019-03-11T08:37:24.888Z,3.37
2019-03-11T08:39:52.968Z,3.00
2019-03-11T08:42:21.013Z,2.67
2019-03-11T08:44:49.055Z,4.90
2019-03-11T08:47:17.110Z,6.07
2019-03-11T08:49:45.166Z,4.17
2019-03-11T08:52:13.426Z,3.43
2019-03-11T08:54:41.469Z,3.10
2019-03-11T08:57:09.529Z,2.83
2019-03-11T08:59:37.581Z,3.50
2019-03-11T09:02:05.671Z,4.47
2019-03-11T09:04:33.746Z,3.57
2019-03-11T09:07:01.787Z,2.33
2019-03-11T09:09:31.671Z,1.77
2019-03-11T09:11:59.612Z,1.90
2019-03-11T09:14:27.651Z,3.53
2019-03-11T09:16:55.694Z,5.47
2019-03-11T09:19:23.800Z,3.77
2019-03-11T09:21:51.845Z,2.80
2019-03-11T09:24:19.923Z,3.57
2019-03-11T09:26:48.246Z,4.30
2019-03-11T09:29:16.286Z,6.00
2019-03-11T09:31:44.365Z,2.17
2019-03-11T09:34:12.410Z,4.43
2019-03-11T09:36:40.465Z,4.23
2019-03-11T09:39:09.497Z,3.30
2019-03-11T09:41:37.530Z,5.00
2019-03-11T09:44:05.667Z,3.77
2019-03-11T09:46:33.741Z,3.97
2019-03-11T09:49:01.806Z,2.27
2019-03-11T09:51:30.935Z,3.00
2019-03-11T09:53:58.975Z,3.13
2019-03-11T09:56:27.066Z,1.20
2019-03-11T09:58:55.106Z,2.00
2019-03-11T10:01:23.162Z,3.00
2019-03-11T10:03:51.199Z,0.87
2019-03-11T10:06:19.244Z,1.97
2019-03-11T10:08:47.344Z,2.20
2019-03-11T10:11:15.393Z,3.60
2019-03-11T10:13:43.450Z,5.20
2019-03-11T10:16:11.482Z,3.50
2019-03-11T10:18:39.790Z,2.03
2019-03-11T10:21:07.871Z,2.80
2019-03-11T10:23:35.932Z,2.17
2019-03-11T10:26:03.974Z,1.50
2019-03-11T10:28:32.046Z,1.67
2019-03-11T10:31:00.091Z,2.37
2019-03-11T10:33:28.130Z,2.80
2019-03-11T10:35:56.205Z,2.07
2019-03-11T10:38:24.268Z,4.50
2019-03-11T10:40:52.320Z,2.00
2019-03-11T10:43:20.358Z,3.27
2019-03-11T10:45:48.407Z,2.77
2019-03-11T10:48:16.469Z,4.23
2019-03-11T10:50:44.526Z,2.63
2019-03-11T10:53:12.566Z,1.63
2019-03-11T10:55:40.612Z,4.97
2019-03-11T10:58:08.738Z,1.47
2019-03-11T11:00:37.223Z,2.00
2019-03-11T11:03:05.339Z,3.27
2019-03-11T11:05:33.440Z,5.97
2019-03-11T11:08:01.482Z,2.87
2019-03-11T11:10:29.546Z,4.10
2019-03-11T11:12:57.594Z,3.43
2019-03-11T11:15:27.173Z,2.77
2019-03-11T11:17:55.298Z,4.37
2019-03-11T11:20:23.534Z,4.70
2019-03-11T11:22:52.142Z,3.87
2019-03-11T11:25:21.727Z,3.70
2019-03-11T11:27:49.943Z,2.43
2019-03-11T11:30:21.508Z,2.57
2019-03-11T11:32:49.666Z,3.67
2019-03-11T11:35:17.774Z,2.30
2019-03-11T11:37:45.889Z,3.67
2019-03-11T11:40:14.998Z,5.43
2019-03-11T11:42:43.047Z,2.50
2019-03-11T11:45:12.453Z,3.20
2019-03-11T11:47:40.578Z,1.97
2019-03-11T11:50:10.494Z,2.73
2019-03-11T11:52:38.541Z,1.43
2019-03-11T11:55:07.764Z,5.83
2019-03-11T11:57:35.814Z,3.27
2019-03-11T12:00:05.392Z,3.93
2019-03-11T12:02:33.454Z,2.97
2019-03-11T12:05:01.503Z,2.53
2019-03-11T12:07:29.565Z,2.90
2019-03-11T12:09:57.662Z,3.97
2019-03-11T12:12:25.718Z,3.93
2019-03-11T12:14:53.780Z,4.63
2019-03-11T12:17:23.515Z,4.40
2019-03-11T12:19:51.752Z,2.50
2019-03-11T12:22:19.794Z,4.30
2019-03-11T12:24:47.832Z,2.50
2019-03-11T12:27:15.887Z,3.33
2019-03-11T12:29:43.922Z,2.60
2019-03-11T12:32:11.953Z,4.07
2019-03-11T12:34:40.014Z,4.37
2019-03-11T12:37:08.074Z,2.37
2019-03-11T12:39:36.119Z,3.73
2019-03-11T12:42:04.162Z,3.30
2019-03-11T12:44:32.467Z,1.40
2019-03-11T12:47:00.527Z,3.50
2019-03-11T12:49:28.581Z,3.03
2019-03-11T12:51:59.557Z,1.63
2019-03-11T12:54:27.651Z,4.53
2019-03-11T12:56:55.702Z,4.17
2019-03-11T12:59:23.738Z,3.07
2019-03-11T13:01:51.803Z,3.07
2019-03-11T13:04:19.847Z,2.77
2019-03-11T13:06:47.890Z,4.53
2019-03-11T13:09:15.936Z,2.80
2019-03-11T13:11:44.008Z,2.13
2019-03-11T13:14:12.036Z,1.97
2019-03-11T13:16:40.103Z,2.33
2019-03-11T13:19:13.303Z,1.43
2019-03-11T13:21:37.908Z,4.57
2019-03-11T13:24:05.980Z,3.03
2019-03-11T13:26:34.021Z,3.03
2019-03-11T13:29:02.114Z,2.80
2019-03-11T13:31:30.149Z,1.93
2019-03-11T13:33:58.206Z,2.13
2019-03-11T13:36:26.251Z,3.60
2019-03-11T13:38:54.294Z,1.53
2019-03-11T13:41:22.355Z,3.33
2019-03-11T13:43:50.467Z,4.37
2019-03-11T13:46:18.510Z,2.13
2019-03-11T13:48:46.558Z,3.40
2019-03-11T13:51:15.325Z,4.30
2019-03-11T13:53:43.510Z,1.70
2019-03-11T13:56:11.566Z,3.63
2019-03-11T13:58:40.594Z,3.17
2019-03-11T14:01:08.643Z,1.50
2019-03-11T14:03:36.679Z,2.67
2019-03-11T14:06:04.726Z,1.73
2019-03-11T14:08:32.785Z,2.77
2019-03-11T14:11:00.814Z,1.43
2019-03-11T14:13:28.894Z,3.60
2019-03-11T14:15:57.298Z,2.87
2019-03-11T14:18:25.458Z,3.70
2019-03-11T14:20:53.500Z,1.50
2019-03-11T14:23:21.542Z,1.33
2019-03-11T14:25:49.622Z,2.73
2019-03-11T14:28:17.651Z,3.37
2019-03-11T14:30:45.708Z,6.83
2019-03-11T14:33:13.751Z,3.43
2019-03-11T14:35:41.790Z,2.37
2019-03-11T14:38:09.850Z,3.40
2019-03-11T14:40:37.882Z,3.00
2019-03-11T14:43:05.942Z,2.97
2019-03-11T14:45:33.985Z,2.30
2019-03-11T14:48:02.195Z,2.97
2019-03-11T14:50:30.255Z,2.97
2019-03-11T14:52:58.489Z,5.43
2019-03-11T14:55:26.570Z,1.93
2019-03-11T14:57:54.602Z,2.77
2019-03-11T15:00:22.642Z,0.90
2019-03-11T15:02:50.711Z,4.63
2019-03-11T15:05:19.031Z,2.27
2019-03-11T15:07:47.144Z,4.13
2019-03-11T15:10:18.363Z,3.97
2019-03-11T15:12:46.474Z,2.53
2019-03-11T15:15:15.383Z,3.70
2019-03-11T15:17:43.418Z,2.07
2019-03-11T15:20:11.560Z,2.40
2019-03-11T15:22:39.606Z,4.67
2019-03-11T15:25:08.616Z,3.77
2019-03-11T15:27:36.670Z,1.97
2019-03-11T15:30:06.493Z,1.57
2019-03-11T15:32:34.586Z,1.80
2019-03-11T15:35:02.669Z,4.30
2019-03-11T15:37:30.726Z,3.90
2019-03-11T15:39:58.758Z,4.40
2019-03-11T15:42:26.808Z,6.23
2019-03-11T15:44:54.862Z,6.07
2019-03-11T15:47:22.931Z,6.30
2019-03-11T15:49:51.005Z,5.33
2019-03-11T15:52:19.050Z,5.27
2019-03-11T15:54:47.094Z,4.43
2019-03-11T15:57:15.142Z,3.90
2019-03-11T15:59:43.177Z,4.43
2019-03-11T16:02:11.242Z,6.33
2019-03-11T16:04:39.289Z,4.57
2019-03-11T16:07:07.337Z,3.60
2019-03-11T16:09:35.386Z,5.90
2019-03-11T16:12:03.445Z,5.50
2019-03-11T16:14:31.528Z,3.13
2019-03-11T16:16:59.696Z,3.73
2019-03-11T16:19:27.847Z,3.83
2019-03-11T16:21:55.959Z,5.90
2019-03-11T16:24:23.994Z,4.50
2019-03-11T16:26:52.064Z,6.13
2019-03-11T16:29:20.086Z,3.97
2019-03-11T16:31:48.135Z,4.80
2019-03-11T16:34:16.191Z,3.37
2019-03-11T16:36:44.234Z,2.73
2019-03-11T16:39:12.285Z,6.70
2019-03-11T16:41:40.342Z,4.17
2019-03-11T16:44:08.394Z,4.00
2019-03-11T16:46:36.438Z,4.07
2019-03-11T16:49:04.498Z,3.07
2019-03-11T16:51:33.444Z,6.13
2019-03-11T16:54:01.450Z,4.00
2019-03-11T16:56:29.497Z,3.87
2019-03-11T16:58:57.630Z,5.80
2019-03-11T17:01:25.669Z,4.23
2019-03-11T17:03:53.786Z,6.83
2019-03-11T17:06:21.826Z,5.63
2019-03-11T17:08:49.874Z,4.30
2019-03-11T17:11:17.927Z,5.37
2019-03-11T17:14:11.026Z,3.77
2019-03-11T17:16:39.134Z,2.77
2019-03-11T17:19:07.290Z,4.37
2019-03-11T17:21:35.372Z,4.03
2019-03-11T17:24:03.411Z,4.63
2019-03-11T17:26:31.448Z,6.07
2019-03-11T17:28:59.510Z,4.40
2019-03-11T17:31:27.555Z,2.57
2019-03-11T17:33:55.594Z,3.23
2019-03-11T17:36:23.642Z,3.83
2019-03-11T17:38:51.678Z,3.67
2019-03-11T17:41:19.749Z,1.67
2019-03-11T17:43:47.789Z,2.27
2019-03-11T17:46:15.839Z,5.30
2019-03-11T17:48:43.890Z,8.33
2019-03-11T17:51:12.824Z,1.97
2019-03-11T17:53:40.954Z,4.27
2019-03-11T17:56:09.086Z,3.43
2019-03-11T17:58:37.135Z,5.70
2019-03-11T18:01:05.354Z,2.60
2019-03-11T18:03:33.418Z,2.17
2019-03-11T18:06:11.113Z,3.20
2019-03-11T18:08:31.235Z,3.00
2019-03-11T18:10:59.295Z,5.43
2019-03-11T18:13:27.353Z,7.00
2019-03-11T18:15:55.477Z,5.37
2019-03-11T18:18:32.767Z,2.13
2019-03-11T18:23:28.918Z,2.57
2019-03-11T18:25:57.003Z,8.27
2019-03-11T18:28:25.079Z,2.93
2019-03-11T18:30:53.189Z,5.63
2019-03-11T18:33:21.249Z,4.40
2019-03-11T18:35:49.339Z,7.23
2019-03-11T18:38:17.378Z,3.70
2019-03-11T18:40:45.448Z,6.43
2019-03-11T18:43:20.564Z,6.23
2019-03-11T18:45:43.234Z,3.30
2019-03-11T18:48:11.302Z,6.60
2019-03-11T18:50:39.409Z,5.23
2019-03-11T18:53:07.459Z,4.50
2019-03-11T18:55:35.511Z,3.47
2019-03-11T18:58:03.580Z,3.93
2019-03-11T19:00:31.727Z,2.57
2019-03-11T19:02:59.777Z,4.50
2019-03-11T19:05:27.861Z,4.27
2019-03-11T19:07:55.953Z,4.37
2019-03-11T19:10:24.178Z,7.33
2019-03-11T19:12:52.299Z,4.27
2019-03-11T19:15:20.908Z,8.13
2019-03-11T19:17:49.011Z,5.83
2019-03-11T19:20:18.049Z,4.10
2019-03-11T19:22:46.367Z,3.00
2019-03-11T19:25:14.586Z,4.87
2019-03-11T19:27:42.655Z,3.03
2019-03-11T19:30:12.338Z,3.53
2019-03-11T19:32:40.409Z,3.67
2019-03-11T19:35:08.436Z,6.67
2019-03-11T19:37:36.506Z,4.47
2019-03-11T19:40:06.154Z,5.20
2019-03-11T19:42:35.234Z,6.13
2019-03-11T19:45:03.643Z,5.53
2019-03-11T19:47:31.733Z,5.47
2019-03-11T19:49:59.938Z,5.30
2019-03-11T19:52:27.978Z,4.33
2019-03-11T19:54:56.030Z,5.50
2019-03-11T19:57:24.088Z,2.40
2019-03-11T19:59:52.181Z,4.23
2019-03-11T20:02:20.301Z,3.67
2019-03-11T20:04:48.375Z,6.67
2019-03-11T20:07:16.730Z,6.33
2019-03-11T20:09:44.838Z,4.30
2019-03-11T20:12:13.191Z,4.03
2019-03-11T20:14:41.343Z,4.93
2019-03-11T20:17:09.375Z,4.77
2019-03-11T20:19:37.450Z,5.77
2019-03-11T20:22:05.710Z,4.67
2019-03-11T20:24:33.784Z,4.93
2019-03-11T20:27:01.960Z,7.47
2019-03-11T20:29:30.196Z,5.00
2019-03-11T20:31:58.351Z,7.27
2019-03-11T20:34:26.405Z,5.47
2019-03-11T20:36:54.541Z,7.10
2019-03-11T20:42:03.380Z,6.17
2019-03-11T20:44:31.460Z,7.53
2019-03-11T20:46:59.518Z,11.70
2019-03-11T20:49:27.643Z,4.03
2019-03-11T20:51:56.771Z,5.30
2019-03-11T20:54:24.981Z,5.70
2019-03-11T20:56:53.073Z,5.50
2019-03-11T20:59:21.122Z,3.07
2019-03-11T21:01:49.161Z,7.30
2019-03-11T21:04:17.234Z,3.57
2019-03-11T21:06:45.265Z,8.47
2019-03-11T21:09:13.424Z,8.83
2019-03-11T21:11:41.560Z,7.60
2019-03-11T21:14:09.711Z,5.80
2019-03-11T21:16:37.786Z,7.93
2019-03-11T21:19:05.928Z,8.13
2019-03-11T21:21:33.995Z,5.97
2019-03-11T21:24:02.469Z,7.80
2019-03-11T21:26:30.632Z,8.83
2019-03-11T21:29:02.175Z,5.03
2019-03-11T21:31:29.048Z,6.07
2019-03-11T21:33:58.774Z,4.40
2019-03-11T21:36:27.397Z,8.00
2019-03-11T21:38:55.474Z,7.17
2019-03-11T21:41:23.548Z,7.03
2019-03-11T21:43:51.777Z,9.77
2019-03-11T21:46:19.829Z,8.90
2019-03-11T21:48:48.060Z,5.53
2019-03-11T21:51:17.020Z,9.43
2019-03-11T21:53:45.882Z,13.63
2019-03-11T21:56:14.009Z,7.43
2019-03-11T21:58:45.543Z,5.87
2019-03-11T22:01:14.019Z,8.80
2019-03-11T22:03:42.025Z,6.43
2019-03-11T22:06:10.065Z,14.43
2019-03-11T22:08:38.143Z,6.73
2019-03-11T22:11:07.134Z,6.57
2019-03-11T22:13:35.226Z,12.30
2019-03-11T22:16:03.341Z,11.33
2019-03-11T22:18:31.386Z,9.80
2019-03-11T22:20:59.454Z,8.20
2019-03-11T22:23:27.602Z,7.10
2019-03-11T22:25:55.684Z,9.17
2019-03-11T22:28:23.748Z,8.00
2019-03-11T22:30:51.924Z,10.90
2019-03-11T22:33:20.012Z,3.73
2019-03-11T22:35:48.058Z,8.13
2019-03-11T22:38:16.119Z,6.33
2019-03-11T22:40:44.175Z,5.80
2019-03-11T22:43:12.274Z,3.57
2019-03-11T22:45:40.409Z,5.77
2019-03-11T22:48:08.507Z,5.47
2019-03-11T22:50:36.650Z,3.73
2019-03-11T22:53:04.705Z,7.87
2019-03-11T22:55:32.794Z,4.60
2019-03-11T22:58:00.838Z,7.70
2019-03-11T23:00:41.194Z,5.90
2019-03-11T23:03:09.727Z,5.17
2019-03-11T23:05:37.778Z,13.20
2019-03-11T23:08:05.845Z,6.13
2019-03-11T23:10:34.136Z,9.50
2019-03-11T23:13:02.186Z,5.83
2019-03-11T23:15:30.241Z,7.33
2019-03-11T23:17:58.295Z,5.30
2019-03-11T23:20:26.366Z,7.10
2019-03-11T23:22:54.414Z,9.40
2019-03-11T23:25:22.480Z,8.17
2019-03-11T23:27:51.000Z,11.30
2019-03-11T23:30:19.106Z,5.43
2019-03-11T23:32:47.152Z,7.53
2019-03-11T23:35:15.201Z,8.03
2019-03-11T23:37:43.272Z,5.73
2019-03-11T23:40:11.398Z,8.43
2019-03-11T23:42:39.464Z,4.33
2019-03-11T23:45:09.082Z,8.90
2019-03-11T23:47:37.140Z,8.00
2019-03-11T23:50:06.735Z,10.30
2019-03-11T23:52:34.859Z,10.87
2019-03-11T23:55:04.125Z,8.10
2019-03-11T23:57:32.186Z,10.83
